Time,TemperatureF,DewpointF,PressureIn,WindDirection,WindDirectionDegrees,WindSpeedMPH,WindSpeedGustMPH,Humidity,HourlyPrecipIn,Conditions,Clouds,dailyrainin,SoftwareType,DateUTC
2013-01-23 00:00:00,27.5,14.2,30.15,WNW,287,1.0,2.0,57,0.00,,,0.00,Wunderground v.1.15,2013-01-23 07:00:00,
2013-01-23 01:00:00,25.7,15.6,30.15,West,281,0.0,2.0,65,0.00,,,0.00,Wunderground v.1.15,2013-01-23 08:00:00,
2013-01-23 02:00:00,23.8,13.0,30.15,WNW,290,1.0,2.0,63,0.00,,,0.00,Wunderground v.1.15,2013-01-23 09:00:00,
2013-01-23 03:00:00,25.4,14.2,30.17,NNW,336,0.0,2.0,62,0.00,,,0.00,Wunderground v.1.15,2013-01-23 10:00:00,
2013-01-23 04:00:00,23.5,13.8,30.17,NW,322,0.0,2.0,66,0.00,,,0.00,Wunderground v.1.15,2013-01-23 11:00:00,
2013-01-23 05:00:00,22.7,13.7,30.20,NW,318,0.0,2.0,68,0.00,,,0.00,Wunderground v.1.15,2013-01-23 12:00:00,
2013-01-23 06:00:00,21.3,13.4,30.23,NW,320,0.0,2.0,71,0.00,,,0.00,Wunderground v.1.15,2013-01-23 13:00:00,
2013-01-23 07:00:00,17.8,11.2,30.28,NNE,33,1.0,2.0,75,0.00,,,0.00,Wunderground v.1.15,2013-01-23 14:00:00,
2013-01-23 08:00:00,16.5,11.1,30.33,NNE,27,0.0,2.0,79,0.00,,,0.00,Wunderground v.1.15,2013-01-23 15:00:00,
2013-01-23 09:00:00,16.2,11.1,30.39,NE,46,2.0,2.0,80,0.00,,,0.00,Wunderground v.1.15,2013-01-23 16:00:00,
2013-01-23 10:00:00,15.4,10.1,30.42,NNE,28,2.0,2.0,79,0.00,,,0.00,Wunderground v.1.15,2013-01-23 17:00:00,
2013-01-23 11:00:00,16.5,10.3,30.40,NNE,33,1.0,2.0,76,0.00,,,0.00,Wunderground v.1.15,2013-01-23 18:00:00,
2013-01-23 12:00:00,18.8,10.9,30.38,ESE,116,0.0,2.0,71,0.00,,,0.00,Wunderground v.1.15,2013-01-23 19:00:00,
2013-01-23 13:00:00,19.2,11.3,30.37,SE,135,2.0,3.0,71,0.00,,,0.00,Wunderground v.1.15,2013-01-23 20:00:00,
2013-01-23 14:00:00,19.5,11.6,30.37,ESE,116,1.0,1.0,71,0.00,,,0.00,Wunderground v.1.15,2013-01-23 21:00:00,
2013-01-23 15:00:00,19.4,10.6,30.38,SE,133,3.0,3.0,68,0.00,,,0.00,Wunderground v.1.15,2013-01-23 22:00:00,
2013-01-23 15:30:00,19.1,9.9,30.37,East,97,3.0,3.0,67,0.00,,,0.00,Wunderground v.1.15,2013-01-23 22:30:00,
2013-01-23 16:00:00,18.6,9.8,30.38,ESE,116,3.0,3.0,68,0.00,,,0.00,Wunderground v.1.15,2013-01-23 23:00:00,
2013-01-23 16:30:00,17.5,8.7,30.39,ESE,120,4.0,4.0,68,0.00,,,0.00,Wunderground v.1.15,2013-01-23 23:30:00,
2013-01-23 17:00:00,15.9,8.2,30.41,ESE,103,5.0,6.0,71,0.00,,,0.00,Wunderground v.1.15,2013-01-24 00:00:00,
2013-01-23 17:30:00,15.6,8.2,30.41,ESE,103,3.0,3.0,72,0.00,,,0.00,Wunderground v.1.15,2013-01-24 00:30:00,
2013-01-23 18:00:00,15.1,8.3,30.41,ESE,108,6.0,9.0,74,0.00,,,0.00,Wunderground v.1.15,2013-01-24 01:00:00,
2013-01-23 18:30:00,14.4,7.9,30.41,SE,131,6.0,7.0,75,0.00,,,0.00,Wunderground v.1.15,2013-01-24 01:30:00,
2013-01-23 19:00:00,13.6,8.0,30.41,SE,139,6.0,6.0,78,0.00,,,0.00,Wunderground v.1.15,2013-01-24 02:00:00,
2013-01-23 19:30:00,13.5,7.9,30.41,ESE,116,6.0,6.0,78,0.00,,,0.00,Wunderground v.1.15,2013-01-24 02:30:00,
2013-01-23 20:00:00,12.8,7.5,30.41,SE,134,7.0,9.0,79,0.00,,,0.00,Wunderground v.1.15,2013-01-24 03:00:00,
2013-01-23 20:30:00,11.7,6.7,30.40,SE,136,8.0,13.0,80,0.00,,,0.00,Wunderground v.1.15,2013-01-24 03:30:00,
2013-01-23 21:00:00,11.4,6.7,30.40,SSE,151,8.0,11.0,81,0.00,,,0.00,Wunderground v.1.15,2013-01-24 04:00:00,
2013-01-23 21:30:00,10.9,6.5,30.39,SE,127,8.0,8.0,82,0.00,,,0.00,Wunderground v.1.15,2013-01-24 04:30:00,
2013-01-23 22:30:00,11.9,6.9,30.37,SE,136,13.0,18.0,80,0.00,,,0.00,Wunderground v.1.15,2013-01-24 05:30:00,
2013-01-23 23:00:00,11.4,6.4,30.34,SE,129,11.0,11.0,80,0.00,,,0.00,Wunderground v.1.15,2013-01-24 06:00:00,
2013-01-23 23:30:00,12.6,7.6,30.30,SSW,210,10.0,10.0,80,0.00,,,0.00,Wunderground v.1.15,2013-01-24 06:30:00,